This is the latest recevied weather packets stored in our database for station/object KG4QXF. If no packets are shown the sender has not sent any weather packets the latest 1 day(s).
| Time | Temp. | Humidity | Pressure | Rain* | Wind** | Luminosity | Snow |
|---|---|---|---|---|---|---|---|
| 1777987589 | 21.67° C | 68% | 1020.1 hPa | 0 mm | 0 m/s | - | - |
| 1777987287 | 21.67° C | 67% | 1019.9 hPa | 0 mm | 0.89 m/s, 136° | - | - |
| 1777986984 | 21.11° C | 67% | 1019.9 hPa | 0 mm | 0 m/s | - | - |
| 1777986682 | 21.11° C | 67% | 1020 hPa | 0 mm | 0 m/s | - | - |
| 1777986380 | 21.11° C | 68% | 1019.9 hPa | 0 mm | 0 m/s | - | - |
| 1777986078 | 21.11° C | 68% | 1019.7 hPa | 0 mm | 0 m/s | - | - |
| 1777985774 | 20.56° C | 68% | 1019.9 hPa | 0 mm | 0.45 m/s, 144° | - | - |
| 1777985471 | 20.56° C | 69% | 1019.9 hPa | 0 mm | 0 m/s | - | - |
| 1777985167 | 20.56° C | 68% | 1019.8 hPa | 0 mm | 0.45 m/s, 56° | - | - |
| 1777984864 | 20.56° C | 69% | 1020 hPa | 0 mm | 0.89 m/s, 97° | - | - |
| 1777984560 | 20.56° C | 71% | 1020.1 hPa | 0 mm | 0.45 m/s, 175° | - | - |
| 1777984257 | 20.56° C | 69% | 1020 hPa | 0 mm | 0.45 m/s, 178° | - | - |
| 1777983953 | 20° C | 72% | 1020.1 hPa | 0 mm | 0 m/s | - | - |
| 1777983650 | 20° C | 73% | 1020 hPa | 0 mm | 0 m/s | - | - |
| 1777983347 | 19.44° C | 75% | 1020 hPa | 0 mm | 0.45 m/s, 163° | - | - |
| 1777983044 | 18.33° C | 80% | 1019.9 hPa | 0 mm | 0 m/s | - | - |
| 1777982740 | 16.67° C | 91% | 1020 hPa | 0 mm | 0 m/s | - | - |
| 1777982435 | 16.11° C | 93% | 1019.7 hPa | 0 mm | 0 m/s | - | - |
| 1777982130 | 15.56° C | 93% | 1019.7 hPa | 0 mm | 0 m/s | - | - |
| 1777981828 | 15.56° C | 94% | 1019.6 hPa | 0 mm | 0 m/s | - | - |
| 1777981525 | 15° C | 94% | 1019.6 hPa | 0 mm | 0 m/s | - | - |
| 1777981221 | 15° C | 94% | 1019.6 hPa | 0 mm | 0 m/s | - | - |
| 1777980918 | 14.44° C | 94% | 1019.6 hPa | 0 mm | 0 m/s | - | - |
| 1777980615 | 14.44° C | 95% | 1019.5 hPa | 0 mm | 0 m/s | - | - |
| 1777980311 | 14.44° C | 95% | 1019.5 hPa | 0 mm | 0 m/s | - | - |
* Rain latest hour (hover to see other rain measurements)
** Current wind speed in m/s (hover to see current wind gust speed)